TAI319 MSLP-MROC
Flight info
| Callsign | TAI319 |
|---|---|
| Flight time | 0h 58m |
| Altitude | 37000 |
| Route | ALTEG2E ALTEG UG436 LIB BARRA3L |
| Aircraft | A320/M-SDE3FGHIRWY/LB1 |
Departure
| Time | 2026-05-04 09:15 |
|---|---|
| Airport | El Salvador International Airport Saint Óscar Arnulfo Romero y Galdámez (MSLP) |
Arrival
| Time | 2026-05-04 10:14 |
|---|---|
| Airport | Juan Santamaría International Airport (MROC) |
| Time | Latitude | Longitude | Altitude | Speed | Heading |
|---|---|---|---|---|---|
| 2026-05-04 09:01 | 13.44292 | -89.06049 | 92 ft | 0 kts | 30° |
| 2026-05-04 09:03 | 13.44271 | -89.06062 | 89 ft | 4 kts | 34° |
| 2026-05-04 09:03 | 13.44251 | -89.06080 | 92 ft | 4 kts | 62° |
| 2026-05-04 09:04 | 13.44246 | -89.06094 | 90 ft | 2 kts | 161° |
| 2026-05-04 09:04 | 13.44252 | -89.06096 | 90 ft | 0 kts | 161° |
| 2026-05-04 09:08 | 13.44245 | -89.06093 | 92 ft | 4 kts | 161° |
| 2026-05-04 09:08 | 13.44218 | -89.06084 | 92 ft | 7 kts | 160° |
| 2026-05-04 09:08 | 13.44199 | -89.06051 | 93 ft | 5 kts | 81° |
| 2026-05-04 09:08 | 13.44219 | -89.05995 | 92 ft | 9 kts | 69° |
| 2026-05-04 09:09 | 13.44230 | -89.05935 | 92 ft | 8 kts | 100° |
| 2026-05-04 09:09 | 13.44190 | -89.05904 | 92 ft | 7 kts | 167° |
| 2026-05-04 09:09 | 13.44147 | -89.05943 | 93 ft | 11 kts | 248° |
| 2026-05-04 09:09 | 13.44120 | -89.06018 | 93 ft | 10 kts | 249° |
| 2026-05-04 09:10 | 13.44097 | -89.06082 | 94 ft | 9 kts | 250° |
| 2026-05-04 09:10 | 13.44079 | -89.06136 | 92 ft | 7 kts | 250° |
| 2026-05-04 09:10 | 13.44063 | -89.06179 | 93 ft | 6 kts | 249° |
| 2026-05-04 09:10 | 13.44043 | -89.06234 | 92 ft | 12 kts | 250° |
| 2026-05-04 09:11 | 13.44010 | -89.06328 | 93 ft | 14 kts | 250° |
| 2026-05-04 09:11 | 13.43977 | -89.06419 | 92 ft | 13 kts | 249° |
| 2026-05-04 09:11 | 13.43949 | -89.06499 | 94 ft | 11 kts | 250° |
| 2026-05-04 09:11 | 13.43924 | -89.06568 | 94 ft | 9 kts | 250° |
| 2026-05-04 09:12 | 13.43904 | -89.06626 | 92 ft | 8 kts | 250° |
| 2026-05-04 09:12 | 13.43881 | -89.06689 | 93 ft | 13 kts | 250° |
| 2026-05-04 09:14 | 13.43623 | -89.06956 | 87 ft | 9 kts | 161° |
| 2026-05-04 09:14 | 13.43607 | -89.06924 | 87 ft | 5 kts | 70° |
| 2026-05-04 09:14 | 13.43609 | -89.06919 | 88 ft | 0 kts | 69° |
| 2026-05-04 09:14 | 13.43639 | -89.06841 | 89 ft | 42 kts | 69° |
| 2026-05-04 09:15 | 13.43811 | -89.06364 | 94 ft | 104 kts | 70° |
| 2026-05-04 09:15 | 13.44125 | -89.05480 | 93 ft | 156 kts | 70° |
| 2026-05-04 09:15 | 13.44498 | -89.04408 | 575 ft | 159 kts | 70° |
| 2026-05-04 09:15 | 13.44864 | -89.03334 | 1193 ft | 159 kts | 70° |
| 2026-05-04 09:17 | 13.43270 | -88.91418 | 5317 ft | 276 kts | 132° |
| 2026-05-04 09:18 | 13.41936 | -88.90010 | 6279 ft | 274 kts | 131° |
| 2026-05-04 09:18 | 13.40613 | -88.88595 | 7127 ft | 276 kts | 131° |
| 2026-05-04 09:18 | 13.39277 | -88.87156 | 7897 ft | 280 kts | 131° |
| 2026-05-04 09:18 | 13.37934 | -88.85703 | 8661 ft | 285 kts | 131° |
| 2026-05-04 09:19 | 13.36793 | -88.84471 | 9281 ft | 289 kts | 131° |
| 2026-05-04 09:19 | 13.35392 | -88.82957 | 10004 ft | 293 kts | 131° |
| 2026-05-04 09:19 | 13.33952 | -88.81401 | 10424 ft | 310 kts | 131° |
| 2026-05-04 09:19 | 13.32410 | -88.79731 | 10664 ft | 331 kts | 131° |
| 2026-05-04 09:20 | 13.30816 | -88.78010 | 11197 ft | 339 kts | 131° |
| 2026-05-04 09:20 | 13.29174 | -88.76244 | 11856 ft | 343 kts | 131° |
| 2026-05-04 09:20 | 13.27508 | -88.74456 | 12548 ft | 347 kts | 131° |
| 2026-05-04 09:20 | 13.25833 | -88.72658 | 13230 ft | 350 kts | 131° |
| 2026-05-04 09:21 | 13.24139 | -88.70839 | 13877 ft | 353 kts | 131° |
| 2026-05-04 09:21 | 13.22487 | -88.69070 | 14891 ft | 338 kts | 131° |
| 2026-05-04 09:21 | 13.20908 | -88.67383 | 16146 ft | 317 kts | 131° |
| 2026-05-04 09:21 | 13.19401 | -88.65775 | 17169 ft | 308 kts | 131° |
| 2026-05-04 09:22 | 13.17914 | -88.64185 | 17863 ft | 308 kts | 131° |
| 2026-05-04 09:22 | 13.16481 | -88.62647 | 18572 ft | 302 kts | 131° |
| 2026-05-04 09:22 | 13.15012 | -88.61069 | 19215 ft | 300 kts | 131° |
| 2026-05-04 09:22 | 13.13529 | -88.59470 | 19361 ft | 318 kts | 131° |
| 2026-05-04 09:23 | 13.11992 | -88.57812 | 19810 ft | 322 kts | 132° |
| 2026-05-04 09:23 | 13.10402 | -88.56101 | 19970 ft | 338 kts | 132° |
| 2026-05-04 09:23 | 13.08732 | -88.54308 | 20086 ft | 355 kts | 132° |
| 2026-05-04 09:23 | 13.06983 | -88.52431 | 20208 ft | 370 kts | 132° |
| 2026-05-04 09:25 | 12.94261 | -88.38802 | 22794 ft | 411 kts | 133° |
| 2026-05-04 09:25 | 12.92280 | -88.36684 | 23254 ft | 414 kts | 133° |
| 2026-05-04 09:26 | 12.90270 | -88.34537 | 23658 ft | 417 kts | 133° |
| 2026-05-04 09:26 | 12.88245 | -88.32376 | 24047 ft | 419 kts | 133° |
| 2026-05-04 09:26 | 12.86216 | -88.30207 | 24435 ft | 422 kts | 133° |
| 2026-05-04 09:26 | 12.84202 | -88.28048 | 24809 ft | 424 kts | 133° |
| 2026-05-04 09:27 | 12.82151 | -88.25849 | 25183 ft | 426 kts | 133° |
| 2026-05-04 09:27 | 12.80088 | -88.23639 | 25552 ft | 428 kts | 133° |
| 2026-05-04 09:27 | 12.78041 | -88.21449 | 25914 ft | 430 kts | 133° |
| 2026-05-04 09:27 | 12.75955 | -88.19218 | 26258 ft | 433 kts | 133° |
| 2026-05-04 09:28 | 12.73863 | -88.16980 | 26601 ft | 435 kts | 133° |
| 2026-05-04 09:28 | 12.71753 | -88.14728 | 26939 ft | 437 kts | 134° |
| 2026-05-04 09:28 | 12.69639 | -88.12475 | 27273 ft | 440 kts | 134° |
| 2026-05-04 09:28 | 12.67529 | -88.10226 | 27604 ft | 442 kts | 134° |
| 2026-05-04 09:29 | 12.65386 | -88.07939 | 27940 ft | 444 kts | 134° |
| 2026-05-04 09:29 | 12.63245 | -88.05656 | 28256 ft | 446 kts | 134° |
| 2026-05-04 09:29 | 12.61078 | -88.03347 | 28570 ft | 449 kts | 134° |
| 2026-05-04 09:29 | 12.58928 | -88.01057 | 28876 ft | 451 kts | 134° |
| 2026-05-04 09:30 | 12.56743 | -87.98731 | 29176 ft | 453 kts | 134° |
| 2026-05-04 09:30 | 12.54582 | -87.96347 | 29474 ft | 456 kts | 132° |
| 2026-05-04 09:30 | 12.52536 | -87.93901 | 29755 ft | 459 kts | 130° |
| 2026-05-04 09:30 | 12.50524 | -87.91349 | 30017 ft | 461 kts | 129° |
| 2026-05-04 09:31 | 12.48531 | -87.88750 | 30250 ft | 463 kts | 129° |
| 2026-05-04 09:31 | 12.46536 | -87.86139 | 30496 ft | 464 kts | 129° |
| 2026-05-04 09:31 | 12.44525 | -87.83537 | 30739 ft | 466 kts | 129° |
| 2026-05-04 09:31 | 12.42484 | -87.80947 | 30973 ft | 467 kts | 130° |
| 2026-05-04 09:32 | 12.40447 | -87.78398 | 31197 ft | 469 kts | 130° |
| 2026-05-04 09:32 | 12.38363 | -87.75812 | 31538 ft | 467 kts | 130° |
| 2026-05-04 09:34 | 12.24054 | -87.57980 | 33886 ft | 460 kts | 130° |
| 2026-05-04 09:34 | 12.22032 | -87.55454 | 34174 ft | 460 kts | 130° |
| 2026-05-04 09:34 | 12.19997 | -87.52907 | 34461 ft | 459 kts | 130° |
| 2026-05-04 09:34 | 12.17999 | -87.50410 | 34739 ft | 459 kts | 130° |
| 2026-05-04 09:35 | 12.15971 | -87.47880 | 34854 ft | 458 kts | 130° |
| 2026-05-04 09:35 | 12.13962 | -87.45374 | 34887 ft | 452 kts | 130° |
| 2026-05-04 09:35 | 12.09973 | -87.40408 | 34883 ft | 449 kts | 130° |
| 2026-05-04 09:37 | 11.94146 | -87.20720 | 34883 ft | 448 kts | 130° |
| 2026-05-04 09:38 | 11.90173 | -87.15780 | 34885 ft | 448 kts | 130° |
| 2026-05-04 09:38 | 11.86240 | -87.10892 | 34887 ft | 448 kts | 130° |
| 2026-05-04 09:39 | 11.82274 | -87.05958 | 34888 ft | 448 kts | 130° |
| 2026-05-04 09:39 | 11.78308 | -87.01034 | 34888 ft | 448 kts | 130° |
| 2026-05-04 09:40 | 11.74363 | -86.96143 | 34889 ft | 448 kts | 130° |
| 2026-05-04 09:40 | 11.70404 | -86.91223 | 34890 ft | 447 kts | 130° |
| 2026-05-04 09:42 | 11.54588 | -86.71656 | 34879 ft | 447 kts | 130° |
| 2026-05-04 09:43 | 11.50623 | -86.66748 | 34873 ft | 447 kts | 130° |
| 2026-05-04 09:43 | 11.46683 | -86.61879 | 34874 ft | 447 kts | 130° |
| 2026-05-04 09:44 | 11.42707 | -86.56976 | 34872 ft | 447 kts | 130° |
| 2026-05-04 09:46 | 11.26851 | -86.37399 | 34880 ft | 449 kts | 130° |
| 2026-05-04 09:46 | 11.22881 | -86.32508 | 34882 ft | 449 kts | 130° |
| 2026-05-04 09:47 | 11.18883 | -86.27585 | 34878 ft | 449 kts | 130° |
| 2026-05-04 09:49 | 11.02946 | -86.07978 | 34883 ft | 449 kts | 130° |
| 2026-05-04 09:51 | 10.89022 | -85.90873 | 34890 ft | 448 kts | 130° |
| 2026-05-04 09:51 | 10.85022 | -85.85998 | 34892 ft | 448 kts | 130° |
| 2026-05-04 09:52 | 10.80974 | -85.81219 | 34892 ft | 447 kts | 131° |
| 2026-05-04 09:52 | 10.77587 | -85.77265 | 34892 ft | 447 kts | 131° |
| 2026-05-04 09:53 | 10.73576 | -85.72450 | 34894 ft | 446 kts | 129° |
| 2026-05-04 09:53 | 10.69684 | -85.67536 | 34891 ft | 446 kts | 128° |
| 2026-05-04 09:54 | 10.65803 | -85.62617 | 34891 ft | 445 kts | 128° |
| 2026-05-04 09:54 | 10.61902 | -85.57715 | 34674 ft | 451 kts | 129° |
| 2026-05-04 09:54 | 10.59941 | -85.55182 | 33790 ft | 458 kts | 124° |
| 2026-05-04 09:55 | 10.58320 | -85.52357 | 32882 ft | 462 kts | 115° |
| 2026-05-04 09:55 | 10.56925 | -85.49443 | 32356 ft | 456 kts | 116° |
| 2026-05-04 09:55 | 10.55523 | -85.46543 | 31704 ft | 454 kts | 116° |
| 2026-05-04 09:55 | 10.54124 | -85.43660 | 31059 ft | 453 kts | 116° |
| 2026-05-04 09:56 | 10.52745 | -85.40824 | 30405 ft | 452 kts | 117° |
| 2026-05-04 09:56 | 10.51348 | -85.37951 | 29684 ft | 453 kts | 117° |
| 2026-05-04 09:56 | 10.49956 | -85.35088 | 28973 ft | 451 kts | 117° |
| 2026-05-04 09:56 | 10.48568 | -85.32231 | 28278 ft | 449 kts | 117° |
| 2026-05-04 09:57 | 10.47189 | -85.29386 | 27583 ft | 447 kts | 117° |
| 2026-05-04 09:57 | 10.45830 | -85.26580 | 26895 ft | 446 kts | 117° |
| 2026-05-04 09:57 | 10.44476 | -85.23791 | 26226 ft | 444 kts | 117° |
| 2026-05-04 09:57 | 10.43107 | -85.20975 | 25557 ft | 443 kts | 117° |
| 2026-05-04 09:58 | 10.41750 | -85.18179 | 24893 ft | 442 kts | 117° |
| 2026-05-04 09:58 | 10.40390 | -85.15371 | 24229 ft | 441 kts | 117° |
| 2026-05-04 09:58 | 10.39036 | -85.12576 | 23571 ft | 439 kts | 117° |
| 2026-05-04 10:00 | 10.29877 | -84.93698 | 20038 ft | 401 kts | 117° |
| 2026-05-04 10:00 | 10.29058 | -84.92018 | 19928 ft | 391 kts | 117° |
| 2026-05-04 10:02 | 10.21189 | -84.75859 | 15292 ft | 353 kts | 116° |
| 2026-05-04 10:04 | 10.12906 | -84.61509 | 12823 ft | 309 kts | 145° |
| 2026-05-04 10:04 | 10.11090 | -84.60388 | 12636 ft | 302 kts | 148° |
| 2026-05-04 10:04 | 10.09587 | -84.59478 | 12363 ft | 299 kts | 148° |
| 2026-05-04 10:04 | 10.07799 | -84.58394 | 12069 ft | 295 kts | 148° |
| 2026-05-04 10:05 | 10.06067 | -84.57343 | 11687 ft | 285 kts | 147° |
| 2026-05-04 10:05 | 10.04372 | -84.56315 | 11219 ft | 280 kts | 147° |
| 2026-05-04 10:05 | 10.02750 | -84.55334 | 10925 ft | 268 kts | 147° |
| 2026-05-04 10:05 | 10.01171 | -84.54382 | 10598 ft | 257 kts | 147° |
| 2026-05-04 10:06 | 9.99660 | -84.53469 | 10282 ft | 249 kts | 147° |
| 2026-05-04 10:06 | 9.98195 | -84.52581 | 9978 ft | 240 kts | 147° |
| 2026-05-04 10:06 | 9.96772 | -84.51718 | 9557 ft | 236 kts | 146° |
| 2026-05-04 10:08 | 9.90319 | -84.45898 | 7734 ft | 197 kts | 90° |
| 2026-05-04 10:08 | 9.90555 | -84.44547 | 7474 ft | 193 kts | 70° |
| 2026-05-04 10:08 | 9.91029 | -84.43297 | 7214 ft | 189 kts | 70° |
| 2026-05-04 10:08 | 9.91497 | -84.42044 | 6962 ft | 185 kts | 70° |
| 2026-05-04 10:09 | 9.91943 | -84.40846 | 6721 ft | 183 kts | 70° |
| 2026-05-04 10:09 | 9.92395 | -84.39630 | 6469 ft | 183 kts | 70° |
| 2026-05-04 10:09 | 9.92836 | -84.38425 | 6206 ft | 183 kts | 70° |
| 2026-05-04 10:09 | 9.93278 | -84.37222 | 5961 ft | 180 kts | 69° |
| 2026-05-04 10:10 | 9.93718 | -84.36041 | 5727 ft | 177 kts | 69° |
| 2026-05-04 10:10 | 9.94149 | -84.34888 | 5504 ft | 174 kts | 69° |
| 2026-05-04 10:10 | 9.94578 | -84.33743 | 5282 ft | 173 kts | 69° |
| 2026-05-04 10:10 | 9.95000 | -84.32616 | 5074 ft | 168 kts | 69° |
| 2026-05-04 10:11 | 9.95407 | -84.31529 | 4886 ft | 160 kts | 69° |
| 2026-05-04 10:11 | 9.95791 | -84.30504 | 4681 ft | 150 kts | 69° |
| 2026-05-04 10:11 | 9.96152 | -84.29538 | 4484 ft | 147 kts | 69° |
| 2026-05-04 10:11 | 9.96516 | -84.28567 | 4296 ft | 146 kts | 68° |
| 2026-05-04 10:12 | 9.96876 | -84.27605 | 4109 ft | 146 kts | 68° |
| 2026-05-04 10:12 | 9.97237 | -84.26642 | 3937 ft | 145 kts | 70° |
| 2026-05-04 10:12 | 9.97592 | -84.25692 | 3747 ft | 145 kts | 70° |
| 2026-05-04 10:12 | 9.97950 | -84.24739 | 3542 ft | 143 kts | 70° |
| 2026-05-04 10:13 | 9.98296 | -84.23798 | 3338 ft | 143 kts | 70° |
| 2026-05-04 10:13 | 9.98647 | -84.22859 | 3157 ft | 143 kts | 69° |
| 2026-05-04 10:13 | 9.99003 | -84.21918 | 2969 ft | 139 kts | 68° |
| 2026-05-04 10:13 | 9.99284 | -84.21169 | 3003 ft | 89 kts | 69° |
| 2026-05-04 10:14 | 9.99439 | -84.20756 | 3030 ft | 46 kts | 69° |
| 2026-05-04 10:14 | 9.99532 | -84.20509 | 3036 ft | 22 kts | 69° |
| 2026-05-04 10:16 | 9.99711 | -84.20287 | 3036 ft | 0 kts | 69° |
| 2026-05-04 10:16 | 9.99715 | -84.20276 | 3035 ft | 2 kts | 69° |
| 2026-05-04 10:16 | 9.99720 | -84.20265 | 3035 ft | 1 kts | 64° |
| 2026-05-04 10:16 | 9.99739 | -84.20261 | 3034 ft | 3 kts | 352° |
| 2026-05-04 10:17 | 9.99760 | -84.20268 | 3034 ft | 3 kts | 340° |
| 2026-05-04 10:17 | 9.99773 | -84.20272 | 3034 ft | 1 kts | 340° |
| 2026-05-04 10:19 | 9.99775 | -84.20273 | 3034 ft | 0 kts | 340° |
| 2026-05-04 10:22 | 9.99767 | -84.20270 | 3034 ft | 0 kts | 340° |